Time;durP1;ratioP1;P1;durP2;ratioP2;P2;SDS_P1;SDS_P2;PMS_P1;PMS_P2;Temp;Humidity;BMP_temperature;BMP_pressure;BME280_temperature;BME280_humidity;BME280_pressure;Samples;Min_cycle;Max_cycle;Signal;HPM_P1;HPM_P2
2022/12/04 00:01:45;;;;;;;24.98;11.88;;;;;;;-6.18;61.80;102858.03;5033831;28;20121;-54
2022/12/04 00:04:10;;;;;;;26.88;10.65;;;;;;;-6.12;61.68;102866.06;5033929;28;20034;-53
2022/12/04 00:06:36;;;;;;;23.25;11.52;;;;;;;-6.25;61.79;102860.41;5033353;28;20227;-51
2022/12/04 00:09:02;;;;;;;28.38;12.02;;;;;;;-6.33;62.14;102855.72;5050825;28;20451;-53
2022/12/04 00:11:29;;;;;;;21.15;10.32;;;;;;;-6.23;61.89;102871.78;5053931;28;20036;-52
2022/12/04 00:13:55;;;;;;;26.77;12.60;;;;;;;-6.31;62.02;102870.59;5053727;28;20120;-54
2022/12/04 00:16:25;;;;;;;23.20;11.57;;;;;;;-6.27;61.59;102869.91;5053052;28;20455;-52
2022/12/04 00:18:52;;;;;;;26.65;12.20;;;;;;;-6.31;62.17;102881.00;5052201;28;20029;-56
2022/12/04 00:21:19;;;;;;;24.90;12.98;;;;;;;-6.33;61.75;102867.03;5051592;28;20029;-57
2022/12/04 00:23:45;;;;;;;23.70;12.00;;;;;;;-6.42;61.85;102862.34;5038715;28;20415;-57
2022/12/04 00:26:14;;;;;;;22.63;11.57;;;;;;;-6.42;62.12;102875.38;5033977;28;20106;-55
2022/12/04 00:28:40;;;;;;;25.52;11.65;;;;;;;-6.66;62.03;102842.31;5037818;28;20409;-54
2022/12/04 00:31:08;;;;;;;26.63;12.20;;;;;;;-6.43;61.48;102863.19;5033169;28;20037;-49
2022/12/04 00:33:34;;;;;;;23.00;11.77;;;;;;;-6.62;62.26;102866.78;5032613;28;20121;-52
2022/12/04 00:36:02;;;;;;;22.50;11.40;;;;;;;-6.67;62.23;102871.81;5044178;28;20120;-49
2022/12/04 00:38:28;;;;;;;24.35;11.25;;;;;;;-6.71;61.88;102877.72;5042210;28;20441;-51
2022/12/04 00:40:54;;;;;;;21.40;11.38;;;;;;;-6.78;62.53;102873.09;5033017;28;20083;-52
2022/12/04 00:43:20;;;;;;;24.63;12.18;;;;;;;-6.85;62.16;102869.34;5032773;28;20178;-52
2022/12/04 00:45:46;;;;;;;23.92;11.63;;;;;;;-6.83;62.66;102882.47;5042117;28;20451;-53
2022/12/04 00:48:11;;;;;;;22.50;11.30;;;;;;;-6.85;62.01;102878.91;5041073;28;20053;-55
2022/12/04 00:50:37;;;;;;;23.67;10.90;;;;;;;-6.85;62.00;102884.13;5032712;28;20036;-50
2022/12/04 00:53:03;;;;;;;22.27;11.77;;;;;;;-7.09;62.02;102848.41;5033999;28;20036;-52
2022/12/04 00:55:28;;;;;;;26.27;11.90;;;;;;;-6.92;62.21;102877.75;5051503;28;20037;-52
2022/12/04 00:57:54;;;;;;;21.15;10.40;;;;;;;-6.90;62.20;102876.09;5044124;28;20449;-54
2022/12/04 01:00:19;;;;;;;25.00;11.45;;;;;;;-7.00;61.75;102858.31;5035725;28;20036;-54
2022/12/04 01:02:44;;;;;;;24.48;11.65;;;;;;;-7.10;62.26;102870.94;5052196;28;20112;-53
2022/12/04 01:05:11;;;;;;;21.88;11.30;;;;;;;-7.10;62.49;102870.09;5052573;28;20060;-51
2022/12/04 01:07:37;;;;;;;23.73;11.35;;;;;;;-7.09;61.86;102875.34;5045327;28;20116;-55
2022/12/04 01:10:04;;;;;;;23.17;11.57;;;;;;;-7.18;62.24;102879.25;5038292;28;20041;-49
2022/12/04 01:12:30;;;;;;;23.17;10.25;;;;;;;-7.13;62.29;102888.16;5032753;28;20056;-48
2022/12/04 01:14:55;;;;;;;17.40;9.05;;;;;;;-7.17;61.81;102883.66;5032464;28;20033;-51
2022/12/04 01:17:21;;;;;;;23.17;10.55;;;;;;;-7.18;61.73;102884.47;5034992;28;20124;-50
2022/12/04 01:19:46;;;;;;;26.95;12.13;;;;;;;-7.38;62.44;102884.50;5052274;28;20029;-49
2022/12/04 01:22:12;;;;;;;24.52;10.55;;;;;;;-7.47;62.75;102866.81;5051707;28;20029;-54
2022/12/04 01:24:37;;;;;;;28.33;11.10;;;;;;;-7.37;62.71;102884.59;5049146;28;20040;-52
2022/12/04 01:27:03;;;;;;;19.00;10.02;;;;;;;-7.27;62.21;102890.19;5036288;28;20040;-55
2022/12/04 01:29:28;;;;;;;21.38;10.95;;;;;;;-7.37;62.56;102871.56;5040662;28;20041;-50
2022/12/04 01:31:54;;;;;;;23.52;11.30;;;;;;;-7.38;62.33;102867.19;5039612;28;20769;-51
2022/12/04 01:34:19;;;;;;;25.80;12.80;;;;;;;-7.43;62.38;102844.38;5053595;28;20041;-52
2022/12/04 01:36:45;;;;;;;24.15;11.88;;;;;;;-7.34;62.40;102886.44;5043106;28;20032;-48
2022/12/04 01:39:11;;;;;;;27.88;12.20;;;;;;;-7.33;62.33;102880.41;5056495;28;20032;-51
2022/12/04 01:41:36;;;;;;;28.17;11.27;;;;;;;-7.32;61.97;102883.88;5045142;28;20453;-51
2022/12/04 01:44:13;;;;;;;25.20;12.13;;;;;;;-7.31;62.04;102881.38;5036726;28;20033;-55
2022/12/04 01:46:40;;;;;;;26.38;11.73;;;;;;;-7.58;62.02;102855.03;5036163;28;20045;-53
2022/12/04 01:49:13;;;;;;;25.02;11.38;;;;;;;-7.51;61.97;102877.88;5035118;28;20041;-57
2022/12/04 01:51:43;;;;;;;26.88;11.50;;;;;;;-7.45;62.08;102887.69;5036452;28;20468;-52
2022/12/04 01:54:13;;;;;;;24.73;12.30;;;;;;;-7.52;62.32;102883.91;5050037;28;20163;-54
2022/12/04 01:56:43;;;;;;;24.40;11.35;;;;;;;-7.57;62.41;102888.94;5056069;28;20032;-53
2022/12/04 01:59:12;;;;;;;24.73;11.27;;;;;;;-7.52;62.20;102890.03;5056545;28;20262;-50
2022/12/04 02:01:48;;;;;;;22.58;10.30;;;;;;;-7.58;62.19;102876.75;5055884;28;20443;-50
2022/12/04 02:04:13;;;;;;;25.75;11.48;;;;;;;-7.63;62.31;102880.84;5055009;28;20347;-48
2022/12/04 02:06:38;;;;;;;26.95;11.18;;;;;;;-7.61;62.31;102884.41;5056160;28;20108;-51
2022/12/04 02:09:04;;;;;;;22.08;10.68;;;;;;;-7.61;62.10;102886.13;5037444;28;20189;-53
2022/12/04 02:11:35;;;;;;;22.92;10.68;;;;;;;-7.68;62.41;102895.34;5055645;28;20044;-53
2022/12/04 02:14:18;;;;;;;22.15;11.00;;;;;;;-7.67;62.34;102885.03;5048811;28;20029;-51
2022/12/04 02:16:58;;;;;;;23.17;10.02;;;;;;;-7.60;62.11;102898.31;5035854;28;20116;-52
2022/12/04 02:20:02;;;;;;;23.35;11.18;;;;;;;-7.72;62.44;102888.25;5041141;28;20025;-54
2022/12/04 02:22:38;;;;;;;23.98;10.85;;;;;;;-7.81;62.15;102901.72;5054807;28;20372;-49
2022/12/04 02:25:24;;;;;;;22.95;10.55;;;;;;;-8.01;62.73;102846.22;5046225;28;20341;-52
2022/12/04 02:28:21;;;;;;;22.58;10.35;;;;;;;-7.87;62.56;102885.84;5043524;28;20045;-52
2022/12/04 02:30:50;;;;;;;25.60;11.20;;;;;;;-7.80;62.11;102887.91;5038952;28;20371;-55
2022/12/04 02:33:23;;;;;;;24.77;11.00;;;;;;;-7.86;62.19;102892.84;5036470;28;20053;-53
2022/12/04 02:36:21;;;;;;;27.33;10.57;;;;;;;-7.86;62.74;102892.84;5046723;28;20433;-51
2022/12/04 02:39:03;;;;;;;26.10;10.88;;;;;;;-7.96;62.45;102902.84;5054676;28;20106;-54
2022/12/04 02:42:11;;;;;;;31.02;11.38;;;;;;;-7.90;62.50;102906.53;5044463;28;20060;-54
2022/12/04 02:44:48;;;;;;;21.15;10.10;;;;;;;-7.97;62.46;102913.16;5053617;28;20045;-52
2022/12/04 02:47:18;;;;;;;22.52;11.07;;;;;;;-8.07;62.45;102907.53;5043353;28;20471;-57
2022/12/04 02:49:48;;;;;;;24.15;10.95;;;;;;;-8.04;62.25;102892.91;5054494;28;20045;-51
2022/12/04 02:52:19;;;;;;;24.58;10.48;;;;;;;-8.11;62.89;102905.59;5052528;28;20052;-50
2022/12/04 02:54:50;;;;;;;28.67;10.65;;;;;;;-8.14;62.90;102902.84;5036330;28;20043;-54
2022/12/04 02:57:25;;;;;;;26.00;11.13;;;;;;;-8.57;63.20;102844.59;5046380;28;20152;-55
2022/12/04 02:59:53;;;;;;;20.95;10.27;;;;;;;-8.14;63.19;102894.19;5035268;28;20037;-53
2022/12/04 03:02:37;;;;;;;25.25;10.68;;;;;;;-8.13;63.26;102898.56;5049792;28;20066;-49
2022/12/04 03:05:09;;;;;;;28.00;11.55;;;;;;;-8.03;62.36;102895.53;5054948;28;20033;-51
2022/12/04 03:07:53;;;;;;;25.77;10.70;;;;;;;-8.02;62.81;102905.13;5050388;28;20111;-50
2022/12/04 03:10:24;;;;;;;23.10;10.70;;;;;;;-8.07;62.68;102909.22;5052455;28;20448;-52
2022/12/04 03:13:08;;;;;;;24.30;10.48;;;;;;;-8.01;62.73;102912.09;5042059;28;20451;-51
2022/12/04 03:15:42;;;;;;;20.52;9.48;;;;;;;-8.03;62.71;102910.28;5034607;28;20044;-50
2022/12/04 03:18:15;;;;;;;23.15;11.02;;;;;;;-8.03;62.60;102910.28;5048208;28;20406;-54
2022/12/04 03:20:44;;;;;;;23.40;9.65;;;;;;;-8.12;62.57;102905.53;5054506;28;20040;-56
2022/12/04 03:23:21;;;;;;;21.55;10.73;;;;;;;-8.14;62.65;102904.56;5054147;28;20100;-54
2022/12/04 03:25:59;;;;;;;23.27;10.68;;;;;;;-8.11;62.68;102907.31;5054559;28;20044;-48
2022/12/04 03:28:33;;;;;;;24.85;10.18;;;;;;;-8.09;62.43;102913.47;5045991;28;20492;-52
2022/12/04 03:31:05;;;;;;;23.42;10.02;;;;;;;-8.13;62.56;102914.16;5046417;28;20376;-56
2022/12/04 03:33:39;;;;;;;23.52;11.45;;;;;;;-8.18;62.58;102907.84;5035496;28;20025;-52
2022/12/04 03:36:27;;;;;;;24.93;11.37;;;;;;;-8.21;62.61;102916.38;5033806;28;20119;-55
2022/12/04 03:38:56;;;;;;;22.23;10.52;;;;;;;-8.14;62.12;102907.19;5045136;28;20345;-54
2022/12/04 03:41:37;;;;;;;25.88;10.95;;;;;;;-8.26;62.60;102907.50;5034225;28;20041;-56
2022/12/04 03:44:19;;;;;;;21.15;10.68;;;;;;;-8.24;62.71;102916.25;5048767;28;20040;-56
2022/12/04 03:46:53;;;;;;;23.85;11.02;;;;;;;-8.24;62.64;102917.13;5053171;28;20049;-52
2022/12/04 03:49:24;;;;;;;23.80;10.35;;;;;;;-8.25;62.39;102915.34;5053854;28;20084;-55
2022/12/04 03:52:02;;;;;;;20.33;9.85;;;;;;;-8.29;62.81;102908.22;5054008;28;20440;-51
2022/12/04 03:54:32;;;;;;;24.90;10.20;;;;;;;-8.26;62.62;102923.09;5051884;28;20037;-52
2022/12/04 03:57:03;;;;;;;23.38;9.85;;;;;;;-8.32;62.78;102912.38;5033592;28;20035;-50
2022/12/04 03:59:39;;;;;;;20.15;9.88;;;;;;;-8.25;62.86;102922.28;5033571;28;20517;-50
2022/12/04 04:02:10;;;;;;;23.15;9.57;;;;;;;-8.30;62.72;102922.03;5033840;28;20026;-52
2022/12/04 04:04:40;;;;;;;23.73;10.25;;;;;;;-8.23;62.41;102933.63;5033726;28;20026;-49
2022/12/04 04:07:21;;;;;;;21.63;10.27;;;;;;;-8.29;62.74;102933.34;5033184;28;20029;-49
2022/12/04 04:09:52;;;;;;;18.45;8.93;;;;;;;-8.37;62.96;102940.78;5033481;28;20032;-51
2022/12/04 04:12:22;;;;;;;23.48;10.23;;;;;;;-8.38;62.93;102945.06;5039668;28;20399;-51
2022/12/04 04:26:14;;;;;;;22.08;9.80;;;;;;;-8.40;62.78;102936.31;5033358;28;20574;-49
2022/12/04 04:28:41;;;;;;;24.20;10.55;;;;;;;-8.34;62.67;102934.81;5050091;28;20166;-50
2022/12/04 04:31:28;;;;;;;16.65;7.43;;;;;;;-8.24;62.54;102947.44;5048406;28;20030;-50
2022/12/04 04:34:11;;;;;;;21.48;9.82;;;;;;;-8.23;62.09;102942.31;5034141;28;20049;-60
2022/12/04 04:36:52;;;;;;;22.40;9.52;;;;;;;-8.22;62.26;102946.69;5034039;28;20048;-52
2022/12/04 04:39:22;;;;;;;22.77;10.35;;;;;;;-8.20;61.70;102938.97;5033180;28;20029;-50
2022/12/04 04:41:55;;;;;;;22.98;10.10;;;;;;;-8.30;62.49;102947.16;5033017;28;20048;-52
2022/12/04 04:44:26;;;;;;;18.40;8.65;;;;;;;-8.18;62.19;102954.66;5043096;28;20037;-51
2022/12/04 04:46:59;;;;;;;24.73;9.60;;;;;;;-8.19;61.94;102971.06;5042629;28;20471;-50
2022/12/04 04:49:27;;;;;;;21.48;9.73;;;;;;;-8.19;62.03;102955.47;5042189;28;20038;-49
2022/12/04 04:51:53;;;;;;;23.08;9.80;;;;;;;-8.21;62.26;102958.84;5043610;28;20034;-48
2022/12/04 04:54:20;;;;;;;21.90;10.02;;;;;;;-8.17;62.02;102953.84;5040251;28;20033;-49
2022/12/04 04:56:46;;;;;;;23.95;10.38;;;;;;;-8.16;61.71;102959.09;5042192;28;20056;-49
2022/12/04 04:59:13;;;;;;;14.95;7.93;;;;;;;-8.03;61.64;102957.97;5051079;28;20133;-51
2022/12/04 05:01:41;;;;;;;25.50;10.57;;;;;;;-8.10;61.59;102956.78;5051988;28;20383;-50
2022/12/04 05:04:06;;;;;;;22.60;10.43;;;;;;;-8.16;61.73;102963.41;5042513;28;20937;-51
2022/12/04 05:06:32;;;;;;;25.70;11.02;;;;;;;-8.56;61.82;102890.53;5051222;28;20033;-50
2022/12/04 05:08:57;;;;;;;22.95;10.43;;;;;;;-8.13;61.92;102959.22;5041788;28;20037;-49
2022/12/04 05:11:23;;;;;;;21.05;9.40;;;;;;;-8.22;62.09;102951.88;5047505;28;20017;-51
2022/12/04 05:13:49;;;;;;;21.90;9.77;;;;;;;-8.12;61.75;102958.41;5035915;28;20028;-53
2022/12/04 05:16:15;;;;;;;21.20;9.65;;;;;;;-8.12;62.19;102966.22;5042117;28;20468;-51
2022/12/04 05:19:52;;;;;;;20.70;9.85;;;;;;;-8.16;61.79;102953.88;5044002;28;20137;-52
2022/12/04 05:21:26;;;;;;;21.88;9.70;;;;;;;-8.18;61.12;102946.84;5043999;28;20118;-53
2022/12/04 05:23:52;;;;;;;23.70;9.82;;;;;;;-8.16;61.31;102950.41;5052514;28;20056;-50
2022/12/04 05:26:17;;;;;;;26.35;10.48;;;;;;;-8.18;61.60;102952.06;5049656;28;20032;-51
2022/12/04 05:28:43;;;;;;;19.90;9.77;;;;;;;-8.25;61.23;102945.66;5032401;28;20048;-52
2022/12/04 05:31:08;;;;;;;20.48;9.65;;;;;;;-8.18;61.44;102958.13;5032238;28;20105;-48
2022/12/04 05:33:34;;;;;;;24.70;9.82;;;;;;;-8.13;61.22;102966.16;5038731;28;20044;-51
2022/12/04 05:36:01;;;;;;;21.77;9.82;;;;;;;-8.18;61.23;102955.53;5041499;28;20485;-57
2022/12/04 05:38:27;;;;;;;24.15;10.27;;;;;;;-8.31;61.57;102955.78;5032251;28;20033;-50
2022/12/04 05:40:52;;;;;;;26.55;9.40;;;;;;;-8.32;61.62;102965.28;5032360;28;20040;-49
2022/12/04 05:43:18;;;;;;;24.08;9.98;;;;;;;-8.29;61.35;102970.59;5032885;28;20115;-52
2022/12/04 05:45:43;;;;;;;24.15;9.45;;;;;;;-8.46;61.63;102940.31;5039610;28;20059;-54
2022/12/04 05:48:09;;;;;;;21.60;9.80;;;;;;;-8.26;61.50;102969.88;5034120;28;20055;-52
2022/12/04 05:50:35;;;;;;;21.63;10.27;;;;;;;-8.22;61.38;102975.28;5032496;28;20045;-54
2022/12/04 05:53:00;;;;;;;20.10;9.30;;;;;;;-8.20;61.41;102964.97;5032103;28;20401;-54
2022/12/04 05:55:25;;;;;;;22.55;9.75;;;;;;;-8.04;61.00;102971.78;5031262;28;20029;-52
2022/12/04 05:57:51;;;;;;;23.13;9.18;;;;;;;-8.10;60.84;102981.91;5047067;28;20061;-55
2022/12/04 06:00:17;;;;;;;23.27;9.55;;;;;;;-8.07;60.77;102974.22;5050253;28;20435;-53
2022/12/04 06:02:42;;;;;;;19.02;8.80;;;;;;;-8.00;60.87;102968.50;5031981;28;20494;-53
2022/12/04 06:05:08;;;;;;;21.42;9.25;;;;;;;-7.87;60.67;102969.09;5032238;28;20057;-54
2022/12/04 06:07:33;;;;;;;22.23;9.93;;;;;;;-7.78;60.16;102974.69;5044169;28;20036;-55
2022/12/04 06:09:58;;;;;;;16.88;8.30;;;;;;;-7.66;59.98;102977.88;5052232;28;20114;-55
2022/12/04 06:12:24;;;;;;;21.27;9.27;;;;;;;-7.57;59.76;102972.22;5051056;28;20448;-54
2022/12/04 06:14:49;;;;;;;22.52;9.18;;;;;;;-7.40;59.27;102967.75;5052526;28;20041;-54
2022/12/04 06:17:15;;;;;;;21.60;8.30;;;;;;;-7.31;59.26;102988.09;5043030;28;20030;-53
2022/12/04 06:19:40;;;;;;;22.52;9.63;;;;;;;-7.19;58.89;102977.34;5035712;28;20044;-52
2022/12/04 06:22:05;;;;;;;19.83;8.80;;;;;;;-7.15;58.86;102968.84;5044616;28;20025;-54
2022/12/04 06:24:31;;;;;;;21.08;9.55;;;;;;;-6.95;58.35;102981.84;5055989;28;20032;-53
2022/12/04 06:26:57;;;;;;;21.83;9.07;;;;;;;-6.66;57.07;102979.56;5051254;28;20027;-66
2022/12/04 06:29:23;;;;;;;23.17;9.02;;;;;;;-6.71;57.40;102984.56;5045871;28;20306;-54
2022/12/04 06:31:49;;;;;;;20.23;9.30;;;;;;;-6.90;57.39;102949.03;5044867;28;20039;-54
2022/12/04 06:34:14;;;;;;;24.27;9.60;;;;;;;-6.80;57.32;102937.28;5044574;28;20035;-51
2022/12/04 06:36:40;;;;;;;20.80;8.73;;;;;;;-6.40;57.23;102977.13;5044111;28;20028;-52
2022/12/04 06:39:05;;;;;;;21.70;9.93;;;;;;;-6.09;56.51;102981.88;5042501;28;20061;-55
2022/12/04 06:41:30;;;;;;;21.38;9.13;;;;;;;-5.94;55.67;102973.72;5045042;28;20051;-54
2022/12/04 06:43:57;;;;;;;22.27;9.38;;;;;;;-5.95;55.47;102981.47;5045206;28;20099;-56
2022/12/04 06:46:25;;;;;;;21.08;9.13;;;;;;;-5.87;55.29;102981.78;5043570;28;20140;-59
2022/12/04 06:48:53;;;;;;;26.70;9.75;;;;;;;-5.96;55.32;102980.59;5044875;28;20105;-53
2022/12/04 06:51:24;;;;;;;24.73;9.18;;;;;;;-5.84;55.40;102987.09;5042514;28;20322;-59
2022/12/04 06:53:50;;;;;;;21.33;9.30;;;;;;;-5.74;55.36;102976.22;5045942;28;20063;-53
2022/12/04 06:56:19;;;;;;;29.13;10.90;;;;;;;-5.47;54.72;102994.59;5041635;28;20029;-53
2022/12/04 06:58:45;;;;;;;25.60;9.55;;;;;;;-4.97;54.15;102980.69;5043157;28;20347;-53
2022/12/04 07:01:14;;;;;;;19.08;9.05;;;;;;;-4.25;52.32;102980.44;5043486;28;20025;-53
2022/12/04 07:03:40;;;;;;;21.42;9.00;;;;;;;-3.86;50.79;102981.63;5042254;28;20102;-52
2022/12/04 07:06:10;;;;;;;23.88;9.55;;;;;;;-3.71;50.09;102983.84;5041318;28;20038;-54
2022/12/04 07:08:36;;;;;;;20.05;8.98;;;;;;;-3.57;50.09;102979.03;5043638;28;20032;-52
2022/12/04 07:11:01;;;;;;;18.63;8.73;;;;;;;-3.01;49.35;102988.41;5042610;28;20467;-52
2022/12/04 07:13:27;;;;;;;21.25;8.57;;;;;;;-1.77;46.76;102997.56;5040616;28;20128;-55
2022/12/04 07:15:52;;;;;;;22.00;9.18;;;;;;;-0.17;43.01;102984.75;5041387;28;20029;-53
2022/12/04 07:18:18;;;;;;;17.35;8.50;;;;;;;0.69;40.79;102986.75;5043867;28;20032;-58
2022/12/04 07:20:43;;;;;;;18.70;8.82;;;;;;;0.63;40.20;102997.22;5038404;28;20044;-54
2022/12/04 07:23:08;;;;;;;23.83;9.75;;;;;;;-0.03;40.49;102965.59;5042550;28;20681;-54
2022/12/04 07:25:38;;;;;;;23.70;9.05;;;;;;;-0.65;41.67;103004.13;5039978;28;20033;-55
2022/12/04 07:28:04;;;;;;;21.48;8.98;;;;;;;-1.33;43.14;103007.25;5043377;28;20037;-54
2022/12/04 07:30:29;;;;;;;22.25;8.50;;;;;;;-1.93;44.13;102996.34;5039974;28;20259;-53
2022/12/04 07:32:54;;;;;;;21.73;8.93;;;;;;;-2.45;45.54;103009.97;5042241;28;20513;-50
2022/12/04 07:35:20;;;;;;;23.10;9.70;;;;;;;-3.00;45.88;103005.91;5039631;28;20080;-51
2022/12/04 07:37:45;;;;;;;18.17;8.70;;;;;;;-3.41;47.11;103009.16;5039350;28;20355;-54
2022/12/04 07:40:11;;;;;;;22.65;9.45;;;;;;;-3.61;47.65;103007.75;5043664;28;20414;-52
2022/12/04 07:42:37;;;;;;;17.63;8.48;;;;;;;-3.65;47.65;103011.09;5044778;28;20699;-54
2022/12/04 07:45:03;;;;;;;22.17;9.70;;;;;;;-3.79;48.05;103018.53;5044620;28;20076;-56
2022/12/04 07:47:29;;;;;;;18.38;9.23;;;;;;;-3.90;48.35;103006.84;5046275;28;20140;-55
2022/12/04 07:49:55;;;;;;;21.48;9.65;;;;;;;-3.99;48.57;103017.91;5044068;28;20116;-53
2022/12/04 07:52:20;;;;;;;19.10;9.27;;;;;;;-3.98;49.04;103013.56;5039408;28;20025;-54
2022/12/04 07:54:46;;;;;;;19.92;8.63;;;;;;;-4.22;48.86;102991.00;5039901;28;20035;-52
2022/12/04 07:57:11;;;;;;;20.65;9.07;;;;;;;-4.13;49.14;103007.00;5043497;28;20466;-54
2022/12/04 07:59:37;;;;;;;19.80;8.63;;;;;;;-4.43;48.88;102978.13;5045191;28;20025;-52
2022/12/04 08:02:05;;;;;;;23.10;9.02;;;;;;;-4.64;49.28;102981.81;5040081;28;20028;-52
2022/12/04 08:04:31;;;;;;;16.30;7.30;;;;;;;-4.37;49.20;103020.16;5042521;28;20033;-56
2022/12/04 08:06:56;;;;;;;17.92;8.15;;;;;;;-4.35;49.25;103019.41;5041472;28;20033;-53
2022/12/04 08:09:21;;;;;;;19.90;8.38;;;;;;;-4.33;48.73;103014.22;5040159;28;20029;-57
2022/12/04 08:11:47;;;;;;;20.60;7.95;;;;;;;-4.39;49.34;103025.38;5040509;28;20079;-57
2022/12/04 08:14:12;;;;;;;21.30;8.45;;;;;;;-4.43;49.16;103009.50;5035115;28;20040;-55
2022/12/04 08:16:38;;;;;;;23.23;8.95;;;;;;;-4.38;49.55;103011.44;5041388;28;20440;-50
2022/12/04 08:19:04;;;;;;;18.17;8.20;;;;;;;-4.25;48.67;103012.75;5040611;28;20337;-55
2022/12/04 08:21:30;;;;;;;22.45;8.45;;;;;;;-4.22;49.18;103023.31;5042658;28;20024;-52
2022/12/04 08:23:57;;;;;;;21.48;9.27;;;;;;;-4.33;48.69;103012.47;5041133;28;20037;-53
2022/12/04 08:26:25;;;;;;;18.88;8.52;;;;;;;-4.25;48.39;103012.75;5040834;28;20064;-56
2022/12/04 08:28:55;;;;;;;25.35;8.63;;;;;;;-4.20;48.76;103011.16;5041900;28;20028;-52
2022/12/04 08:31:23;;;;;;;17.92;7.78;;;;;;;-4.10;47.85;103011.44;5048507;28;20029;-55
2022/12/04 08:33:50;;;;;;;18.15;7.72;;;;;;;-4.26;48.13;103016.19;5052648;28;20440;-55
2022/12/04 08:36:19;;;;;;;17.13;8.07;;;;;;;-4.30;48.19;103019.56;5051248;28;20811;-54
2022/12/04 08:38:45;;;;;;;18.20;8.18;;;;;;;-4.36;47.96;103020.25;5032917;28;20048;-52
2022/12/04 08:41:13;;;;;;;18.02;8.30;;;;;;;-4.49;48.37;103016.31;5047796;28;20351;-57
2022/12/04 08:43:38;;;;;;;15.85;8.05;;;;;;;-4.55;48.55;103005.66;5049854;28;20112;-55
2022/12/04 08:46:07;;;;;;;18.05;7.05;;;;;;;-4.36;47.75;103014.09;5032707;28;20175;-54
2022/12/04 08:48:33;;;;;;;16.30;8.02;;;;;;;-4.62;48.27;102998.44;5049025;28;20402;-54
2022/12/04 08:51:00;;;;;;;19.48;7.55;;;;;;;-4.65;48.42;103003.56;5051880;28;20025;-54
2022/12/04 08:53:25;;;;;;;17.83;7.40;;;;;;;-4.74;48.65;102977.13;5053030;28;20032;-56
2022/12/04 08:55:51;;;;;;;16.00;7.55;;;;;;;-4.53;48.16;103005.69;5052656;28;20036;-54
2022/12/04 08:58:17;;;;;;;15.90;6.90;;;;;;;-4.37;47.46;103018.47;5036453;28;20037;-51
2022/12/04 09:00:43;;;;;;;18.35;8.00;;;;;;;-4.52;48.03;103008.38;5042916;28;20119;-58
2022/12/04 09:03:16;;;;;;;19.52;8.13;;;;;;;-4.66;47.97;103002.69;5040783;28;20227;-55
2022/12/04 09:05:44;;;;;;;17.00;7.45;;;;;;;-4.87;48.07;102968.84;5040567;28;20110;-57
2022/12/04 09:08:10;;;;;;;17.83;8.48;;;;;;;-4.79;48.43;102997.88;5042034;28;20024;-52
2022/12/04 09:10:36;;;;;;;18.52;7.75;;;;;;;-4.84;48.92;102992.47;5038856;28;20214;-52
2022/12/04 09:13:02;;;;;;;14.15;7.60;;;;;;;-4.76;48.22;103004.09;5040420;28;20228;-53
2022/12/04 09:15:27;;;;;;;17.95;7.60;;;;;;;-4.99;48.58;102966.69;5037420;28;20356;-53
2022/12/04 09:17:53;;;;;;;18.63;7.75;;;;;;;-4.73;48.63;103002.41;5043948;28;20029;-53
2022/12/04 09:20:18;;;;;;;16.75;7.88;;;;;;;-4.65;48.33;102998.34;5051377;28;20431;-54
2022/12/04 09:22:44;;;;;;;19.40;8.27;;;;;;;-4.76;48.31;103003.19;5040947;28;20064;-51
2022/12/04 09:25:10;;;;;;;16.27;7.47;;;;;;;-4.83;48.89;103002.09;5031929;28;20119;-55
2022/12/04 09:27:37;;;;;;;17.30;8.05;;;;;;;-4.86;48.45;102999.38;5045090;28;20040;-52
2022/12/04 09:30:04;;;;;;;17.80;7.40;;;;;;;-4.88;49.11;103003.66;5051852;28;20033;-58
2022/12/04 09:32:30;;;;;;;16.75;7.18;;;;;;;-4.83;49.02;103015.16;5039884;28;20064;-55
2022/12/04 09:34:55;;;;;;;18.33;7.95;;;;;;;-4.75;48.39;102991.91;5041387;28;20056;-51
2022/12/04 09:37:21;;;;;;;15.35;7.57;;;;;;;-4.90;48.42;102976.56;5041137;28;20135;-56
2022/12/04 09:39:46;;;;;;;18.40;7.13;;;;;;;-4.82;48.44;102996.06;5040781;28;20418;-53
2022/12/04 09:42:33;;;;;;;16.98;7.25;;;;;;;-4.67;48.66;103002.63;5040838;28;20376;-56
2022/12/04 09:45:08;;;;;;;19.88;7.65;;;;;;;-4.72;48.38;102989.38;5041220;28;20060;-55
2022/12/04 09:47:37;;;;;;;;;;;;;;;-4.47;49.56;102993.72;5040011;28;20132;-59
2022/12/04 09:50:19;;;;;;;18.48;6.93;;;;;;;-4.57;48.64;102991.66;5041890;28;19928;-50
2022/12/04 09:53:02;;;;;;;18.33;7.43;;;;;;;-4.60;48.44;103004.59;5037814;28;20040;-53
2022/12/04 09:55:34;;;;;;;17.45;7.07;;;;;;;-4.71;48.54;102987.66;5053601;28;20028;-51
2022/12/04 09:58:03;;;;;;;15.15;7.57;;;;;;;-4.71;48.69;102990.28;5036853;28;20238;-55
2022/12/04 10:00:30;;;;;;;13.45;7.30;;;;;;;-4.73;48.58;102995.44;5035786;28;20040;-49
2022/12/04 10:03:05;;;;;;;19.05;7.93;;;;;;;-4.74;48.78;102990.19;5035965;28;20029;-52
2022/12/04 10:05:54;;;;;;;17.67;7.95;;;;;;;-4.66;48.05;102997.47;5035059;28;20033;-57
2022/12/04 10:08:39;;;;;;;17.30;7.75;;;;;;;-4.81;49.08;102992.59;5037867;28;20040;-48
2022/12/04 10:11:29;;;;;;;20.00;8.15;;;;;;;-4.81;48.84;102989.97;5054873;28;20347;-55
2022/12/04 10:14:27;;;;;;;15.40;7.28;;;;;;;-4.79;48.74;102977.84;5053504;28;20124;-55
2022/12/04 10:17:17;;;;;;;20.90;7.80;;;;;;;-4.77;48.07;102986.63;5036615;28;20041;-55
2022/12/04 10:19:42;;;;;;;15.43;6.95;;;;;;;-4.82;48.65;102972.53;5048728;28;20029;-52
2022/12/04 10:22:41;;;;;;;19.63;7.07;;;;;;;-4.71;49.36;102979.84;5055204;28;20051;-50
2022/12/04 10:25:27;;;;;;;17.02;7.53;;;;;;;-4.83;48.96;102970.72;5038467;28;20058;-52
2022/12/04 10:28:01;;;;;;;15.93;7.15;;;;;;;-4.93;48.60;102969.53;5045373;28;20044;-54
2022/12/04 10:30:33;;;;;;;16.15;7.05;;;;;;;-4.86;48.70;102967.13;5034669;28;20091;-52
2022/12/04 10:33:12;;;;;;;16.90;6.65;;;;;;;-4.94;48.65;102966.84;5035129;28;20035;-50
2022/12/04 10:35:41;;;;;;;19.45;7.55;;;;;;;-4.90;48.61;102968.75;5040753;28;20183;-53
2022/12/04 10:38:42;;;;;;;14.02;7.20;;;;;;;-4.85;49.18;102961.94;5036074;28;20116;-53
2022/12/04 10:41:22;;;;;;;17.27;7.28;;;;;;;-4.78;48.28;102961.31;5033921;28;20075;-54
2022/12/04 10:43:49;;;;;;;13.48;6.72;;;;;;;-4.88;48.57;102964.44;5034371;28;20175;-54
2022/12/04 10:46:22;;;;;;;16.67;6.63;;;;;;;-4.87;48.79;102966.22;5034795;28;20487;-53
2022/12/04 10:48:51;;;;;;;14.57;7.13;;;;;;;-4.99;48.81;102961.47;5035707;28;20037;-51
2022/12/04 10:51:20;;;;;;;15.98;7.63;;;;;;;-4.95;48.91;102954.63;5001295;28;20030;-51
2022/12/04 10:53:48;;;;;;;14.32;6.78;;;;;;;-5.06;48.66;102929.03;5034108;28;20527;-50
2022/12/04 10:56:21;;;;;;;13.88;7.10;;;;;;;-4.88;48.72;102955.75;5035041;28;20083;-50
2022/12/04 10:59:04;;;;;;;18.92;7.80;;;;;;;-4.78;48.63;102963.03;5042565;28;20410;-51
2022/12/04 11:01:32;;;;;;;20.08;7.63;;;;;;;-4.91;48.84;102951.28;5054534;28;20099;-53
2022/12/04 11:04:01;;;;;;;14.52;7.40;;;;;;;-4.87;49.05;102958.38;5052733;28;20031;-49
2022/12/04 11:06:29;;;;;;;14.77;7.25;;;;;;;-4.91;49.40;102960.03;5054343;28;20458;-50
2022/12/04 11:08:55;;;;;;;18.05;6.70;;;;;;;-4.90;48.82;102955.66;5044271;28;20083;-50
2022/12/04 11:11:27;;;;;;;13.68;6.68;;;;;;;-4.87;48.93;102960.13;5037898;28;20087;-54
2022/12/04 11:14:05;;;;;;;14.65;6.68;;;;;;;-5.10;49.05;102923.63;5042509;28;20033;-53
2022/12/04 11:16:37;;;;;;;14.75;6.35;;;;;;;-4.84;48.39;102961.09;5042947;28;20047;-55
2022/12/04 11:19:18;;;;;;;14.55;6.90;;;;;;;-4.98;49.33;102944.94;5043661;28;20438;-54
2022/12/04 11:21:43;;;;;;;12.80;6.63;;;;;;;-4.96;49.01;102958.94;5040291;28;20040;-51
2022/12/04 11:24:19;;;;;;;15.65;6.75;;;;;;;-4.94;49.27;102957.31;5043491;28;20025;-53
2022/12/04 11:26:46;;;;;;;20.90;6.97;;;;;;;-4.98;49.62;102950.19;5032660;28;20033;-51
2022/12/04 11:29:15;;;;;;;14.70;6.95;;;;;;;-4.90;49.33;102958.28;5046719;28;20033;-53
2022/12/04 11:31:48;;;;;;;16.38;6.80;;;;;;;-5.06;49.54;102918.59;5054038;28;20051;-51
2022/12/04 11:34:18;;;;;;;15.52;7.22;;;;;;;-4.93;49.59;102952.97;5053720;28;20098;-55
2022/12/04 11:36:51;;;;;;;18.27;7.78;;;;;;;-4.96;49.53;102955.47;5053667;28;20041;-55
2022/12/04 11:39:28;;;;;;;14.52;7.18;;;;;;;-5.04;49.94;102952.59;5039261;28;20029;-55